Thomson Majesty — 9HA2188 — position and weather

sailwx.info

Track history (hours):
 
Tides and Currents Weather Stations Pressure Air Temp Water Temp Dewpoint Dewpoint Depression Visibility Wind Speed Wind Dir Waves Ship Positions

Thomson Majesty

Last reported at 2015-Mar-28 15:32 UTC. Time now 2015-Mar-28 16:05 UTC.
Position N 28°08' W 015°25'.

Length 207 m; draft 6.2 m.

Type: Ship. MMSI: 248124000.

Date/timePositionNaut miles runAvg speedWind from/ knotsBaromVisibWave heightAir tempDewpointWater temp
2015-Mar-28 15:32N 28°08' W 015°25'0 0.0
2015-Mar-28 14:32N 28°08' W 015°25'0 0.0
2015-Mar-28 13:32N 28°08' W 015°25'0 0.0
2015-Mar-28 12:32N 28°08' W 015°25'0 0.0
2015-Mar-28 11:31N 28°08' W 015°25'0 0.0
2015-Mar-28 10:32N 28°08' W 015°25'0 0.0
2015-Mar-28 09:32N 28°08' W 015°25'0 0.0
2015-Mar-28 08:32N 28°08' W 015°25'0 0.0
2015-Mar-28 07:32N 28°08' W 015°25'7 7.1
2015-Mar-28 06:33N 28°11' W 015°18'1111.0
2015-Mar-28 05:33N 28°19' W 015°09'10 9.7
2015-Mar-28 04:33N 28°27' W 015°14'1111.4
2015-Mar-28 03:33N 28°34' W 015°25'1110.9
2015-Mar-28 02:33N 28°39' W 015°35'1010.4
2015-Mar-28 01:33N 28°31' W 015°43'1110.5
2015-Mar-28 00:33N 28°23' W 015°51'10 9.9
2015-Mar-27 23:33N 28°24' W 016°02'1111.2
2015-Mar-27 22:33N 28°29' W 016°14'1 0.7
2015-Mar-27 21:25N 28°28' W 016°15'0 0.0
2015-Mar-27 20:22N 28°28' W 016°15'0 0.0
2015-Mar-27 19:25N 28°28' W 016°15'0 0.0
2015-Mar-27 18:28N 28°28' W 016°15'0 0.0
2015-Mar-27 17:28N 28°28' W 016°15'0 0.0
2015-Mar-27 16:31N 28°28' W 016°15'0 0.0
2015-Mar-27 15:31N 28°28' W 016°15'0 0.0
2015-Mar-27 14:28N 28°28' W 016°15'0 0.0
2015-Mar-27 13:19N 28°28' W 016°15'0 0.0
2015-Mar-27 12:31N 28°28' W 016°15'0 0.0
2015-Mar-27 11:31N 28°28' W 016°15'0 0.0
2015-Mar-27 10:07N 28°28' W 016°15'0 0.0
2015-Mar-27 09:22N 28°28' W 016°15'0 0.0
2015-Mar-27 08:25N 28°28' W 016°15'0 0.0
2015-Mar-27 07:25N 28°28' W 016°15'0 0.0
2015-Mar-27 06:22N 28°28' W 016°15'0 0.1
2015-Mar-27 05:33N 28°28' W 016°15'1313.0
2015-Mar-27 04:33N 28°31' W 016°00'1312.7
2015-Mar-27 03:33N 28°36' W 015°47'1312.8
2015-Mar-27 02:33N 28°39' W 015°33'1313.3
2015-Mar-27 01:33N 28°42' W 015°18'1010.1
2015-Mar-27 00:33N 28°42' W 015°06'1211.9
2015-Mar-26 23:33N 28°43' W 014°53'1212.3
2015-Mar-26 22:33N 28°45' W 014°39'1212.0
2015-Mar-26 21:33N 28°46' W 014°25'1311.9
2015-Mar-26 20:30N 28°47' W 014°11'1211.9
2015-Mar-26 19:29N 28°49' W 013°57'20 1.5
2015-Mar-26 06:20N 28°30' W 013°49'11 6.1
2015-Mar-26 04:32N 28°37' W 013°39'2 2.4
2015-Mar-26 03:33N 28°38' W 013°36'3 2.4
2015-Mar-26 02:29N 28°39' W 013°34'2 2.3
2015-Mar-26 01:27N 28°39' W 013°31'9 4.4
2015-Mar-25 23:27N 28°36' W 013°40'3 2.4
2015-Mar-25 22:22N 28°37' W 013°38'5 2.3
2015-Mar-25 20:11N 28°40' W 013°33'5 6.1
2015-Mar-25 19:26N 28°44' W 013°32'1112.5
2015-Mar-25 18:33N 28°55' W 013°32'3 2.0
2015-Mar-25 17:15N 28°58' W 013°32'0 0.0
2015-Mar-25 16:33N 28°58' W 013°32'0 0.0
2015-Mar-25 15:21N 28°58' W 013°32'0 0.0
2015-Mar-25 12:24N 28°58' W 013°32'0 0.0
2015-Mar-25 09:27N 28°58' W 013°32'0 0.0
2015-Mar-25 08:21N 28°58' W 013°32'  
2015-Mar-22 17:22N 28°51' W 017°02'63 4.3
2015-Mar-22 02:33N 28°18' W 016°02'1211.5
2015-Mar-22 01:33N 28°18' W 015°49'1211.7
2015-Mar-22 00:33N 28°16' W 015°36'1111.4
2015-Mar-21 23:33N 28°14' W 015°23'6 5.0
2015-Mar-21 22:25N 28°08' W 015°25'0 0.0
2015-Mar-21 21:28N 28°08' W 015°25'0 0.0
2015-Mar-21 20:28N 28°08' W 015°25'0 0.0
2015-Mar-21 19:31N 28°08' W 015°25'0 0.0
2015-Mar-21 18:31N 28°08' W 015°25'0 0.0
2015-Mar-21 17:31N 28°08' W 015°25'0 0.0
2015-Mar-21 16:31N 28°08' W 015°25'0 0.0
2015-Mar-21 15:31N 28°08' W 015°25'0 0.0
2015-Mar-21 14:31N 28°08' W 015°25'0 0.0
2015-Mar-21 13:31N 28°08' W 015°25'0 0.0
2015-Mar-21 12:31N 28°08' W 015°25'0 0.0
2015-Mar-21 11:22N 28°08' W 015°25'0 0.0
2015-Mar-21 10:25N 28°08' W 015°25'0 0.0
2015-Mar-21 09:25N 28°08' W 015°25'0 0.0
2015-Mar-21 08:25N 28°08' W 015°25'0 0.0
2015-Mar-21 07:33N 28°08' W 015°25'9 8.7
2015-Mar-21 06:33N 28°12' W 015°17'1010.5
2015-Mar-21 05:33N 28°20' W 015°08'10 9.8
2015-Mar-21 04:33N 28°27' W 015°15'1010.4
2015-Mar-21 03:33N 28°34' W 015°24'1010.2
2015-Mar-21 02:33N 28°40' W 015°34'10 9.6
2015-Mar-21 01:33N 28°33' W 015°41'10 9.8
2015-Mar-21 00:33N 28°26' W 015°49'9 9.0
2015-Mar-20 23:33N 28°22' W 015°58'1211.7
2015-Mar-20 22:33N 28°27' W 016°10'4 3.4
2015-Mar-20 21:20N 28°28' W 016°15'0 0.0
2015-Mar-20 20:26N 28°28' W 016°15'0 0.0
2015-Mar-20 19:26N 28°28' W 016°15'0 0.0
2015-Mar-20 18:29N 28°28' W 016°15'0 0.0
2015-Mar-20 17:29N 28°28' W 016°15'0 0.0
2015-Mar-20 16:26N 28°28' W 016°15'0 0.0
2015-Mar-20 15:32N 28°28' W 016°15'0 0.0
2015-Mar-20 14:32N 28°28' W 016°15'0 0.0
2015-Mar-20 13:32N 28°28' W 016°15'0 0.0
2015-Mar-20 12:32N 28°28' W 016°15'0 0.0
2015-Mar-20 11:32N 28°28' W 016°15'0 0.0
2015-Mar-20 10:32N 28°28' W 016°15'0 0.0
2015-Mar-20 09:32N 28°28' W 016°15'0 0.0
2015-Mar-20 08:20N 28°28' W 016°15'0 0.0
2015-Mar-20 07:20N 28°28' W 016°15'0 0.0
2015-Mar-20 06:26N 28°28' W 016°15'0 0.0
2015-Mar-20 05:26N 28°28' W 016°15'7 8.6
2015-Mar-20 04:33N 28°27' W 016°06'1414.3
2015-Mar-20 03:33N 28°31' W 015°51'1515.1
2015-Mar-20 02:33N 28°39' W 015°36'1716.5
2015-Mar-20 01:33N 28°41' W 015°17'1716.5
2015-Mar-20 00:33N 28°43' W 014°58'1514.6
2015-Mar-19 23:33N 28°44' W 014°42'1211.5
2015-Mar-19 22:33N 28°46' W 014°29'  
Track history (hours):
 
Tides and Currents Weather Stations Pressure Air Temp Water Temp Dewpoint Dewpoint Depression Visibility Wind Speed Wind Dir Waves Ship Positions

Thomson Majesty

Last reported at 2015-Mar-28 15:32 UTC. Time now 2015-Mar-28 16:05 UTC.
Position N 28°08' W 015°25'.

Length 207 m; draft 6.2 m.

Type: Ship. MMSI: 248124000.

Date/timePositionNaut miles runAvg speedWind from/ knotsBaromVisibWave heightAir tempDewpointWater temp
2015-Mar-28 15:32N 28°08' W 015°25'0 0.0
2015-Mar-28 14:32N 28°08' W 015°25'0 0.0
2015-Mar-28 13:32N 28°08' W 015°25'0 0.0
2015-Mar-28 12:32N 28°08' W 015°25'0 0.0
2015-Mar-28 11:31N 28°08' W 015°25'0 0.0
2015-Mar-28 10:32N 28°08' W 015°25'0 0.0
2015-Mar-28 09:32N 28°08' W 015°25'0 0.0
2015-Mar-28 08:32N 28°08' W 015°25'0 0.0
2015-Mar-28 07:32N 28°08' W 015°25'7 7.1
2015-Mar-28 06:33N 28°11' W 015°18'1111.0
2015-Mar-28 05:33N 28°19' W 015°09'10 9.7
2015-Mar-28 04:33N 28°27' W 015°14'1111.4
2015-Mar-28 03:33N 28°34' W 015°25'1110.9
2015-Mar-28 02:33N 28°39' W 015°35'1010.4
2015-Mar-28 01:33N 28°31' W 015°43'1110.5
2015-Mar-28 00:33N 28°23' W 015°51'10 9.9
2015-Mar-27 23:33N 28°24' W 016°02'1111.2
2015-Mar-27 22:33N 28°29' W 016°14'1 0.7
2015-Mar-27 21:25N 28°28' W 016°15'0 0.0
2015-Mar-27 20:22N 28°28' W 016°15'0 0.0
2015-Mar-27 19:25N 28°28' W 016°15'0 0.0
2015-Mar-27 18:28N 28°28' W 016°15'0 0.0
2015-Mar-27 17:28N 28°28' W 016°15'0 0.0
2015-Mar-27 16:31N 28°28' W 016°15'0 0.0
2015-Mar-27 15:31N 28°28' W 016°15'0 0.0
2015-Mar-27 14:28N 28°28' W 016°15'0 0.0
2015-Mar-27 13:19N 28°28' W 016°15'0 0.0
2015-Mar-27 12:31N 28°28' W 016°15'0 0.0
2015-Mar-27 11:31N 28°28' W 016°15'0 0.0
2015-Mar-27 10:07N 28°28' W 016°15'0 0.0
2015-Mar-27 09:22N 28°28' W 016°15'0 0.0
2015-Mar-27 08:25N 28°28' W 016°15'0 0.0
2015-Mar-27 07:25N 28°28' W 016°15'0 0.0
2015-Mar-27 06:22N 28°28' W 016°15'0 0.1
2015-Mar-27 05:33N 28°28' W 016°15'1313.0
2015-Mar-27 04:33N 28°31' W 016°00'1312.7
2015-Mar-27 03:33N 28°36' W 015°47'1312.8
2015-Mar-27 02:33N 28°39' W 015°33'1313.3
2015-Mar-27 01:33N 28°42' W 015°18'1010.1
2015-Mar-27 00:33N 28°42' W 015°06'1211.9
2015-Mar-26 23:33N 28°43' W 014°53'1212.3
2015-Mar-26 22:33N 28°45' W 014°39'1212.0
2015-Mar-26 21:33N 28°46' W 014°25'1311.9
2015-Mar-26 20:30N 28°47' W 014°11'1211.9
2015-Mar-26 19:29N 28°49' W 013°57'20 1.5
2015-Mar-26 06:20N 28°30' W 013°49'11 6.1
2015-Mar-26 04:32N 28°37' W 013°39'2 2.4
2015-Mar-26 03:33N 28°38' W 013°36'3 2.4
2015-Mar-26 02:29N 28°39' W 013°34'2 2.3
2015-Mar-26 01:27N 28°39' W 013°31'9 4.4
2015-Mar-25 23:27N 28°36' W 013°40'3 2.4
2015-Mar-25 22:22N 28°37' W 013°38'5 2.3
2015-Mar-25 20:11N 28°40' W 013°33'5 6.1
2015-Mar-25 19:26N 28°44' W 013°32'1112.5
2015-Mar-25 18:33N 28°55' W 013°32'3 2.0
2015-Mar-25 17:15N 28°58' W 013°32'0 0.0
2015-Mar-25 16:33N 28°58' W 013°32'0 0.0
2015-Mar-25 15:21N 28°58' W 013°32'0 0.0
2015-Mar-25 12:24N 28°58' W 013°32'0 0.0
2015-Mar-25 09:27N 28°58' W 013°32'0 0.0
2015-Mar-25 08:21N 28°58' W 013°32'  
2015-Mar-22 17:22N 28°51' W 017°02'63 4.3
2015-Mar-22 02:33N 28°18' W 016°02'1211.5
2015-Mar-22 01:33N 28°18' W 015°49'1211.7
2015-Mar-22 00:33N 28°16' W 015°36'1111.4
2015-Mar-21 23:33N 28°14' W 015°23'6 5.0
2015-Mar-21 22:25N 28°08' W 015°25'0 0.0
2015-Mar-21 21:28N 28°08' W 015°25'0 0.0
2015-Mar-21 20:28N 28°08' W 015°25'0 0.0
2015-Mar-21 19:31N 28°08' W 015°25'0 0.0
2015-Mar-21 18:31N 28°08' W 015°25'0 0.0
2015-Mar-21 17:31N 28°08' W 015°25'0 0.0
2015-Mar-21 16:31N 28°08' W 015°25'0 0.0
2015-Mar-21 15:31N 28°08' W 015°25'0 0.0
2015-Mar-21 14:31N 28°08' W 015°25'0 0.0
2015-Mar-21 13:31N 28°08' W 015°25'0 0.0
2015-Mar-21 12:31N 28°08' W 015°25'0 0.0
2015-Mar-21 11:22N 28°08' W 015°25'0 0.0
2015-Mar-21 10:25N 28°08' W 015°25'0 0.0
2015-Mar-21 09:25N 28°08' W 015°25'0 0.0
2015-Mar-21 08:25N 28°08' W 015°25'0 0.0
2015-Mar-21 07:33N 28°08' W 015°25'9 8.7
2015-Mar-21 06:33N 28°12' W 015°17'1010.5
2015-Mar-21 05:33N 28°20' W 015°08'10 9.8
2015-Mar-21 04:33N 28°27' W 015°15'1010.4
2015-Mar-21 03:33N 28°34' W 015°24'1010.2
2015-Mar-21 02:33N 28°40' W 015°34'10 9.6
2015-Mar-21 01:33N 28°33' W 015°41'10 9.8
2015-Mar-21 00:33N 28°26' W 015°49'9 9.0
2015-Mar-20 23:33N 28°22' W 015°58'1211.7
2015-Mar-20 22:33N 28°27' W 016°10'4 3.4
2015-Mar-20 21:20N 28°28' W 016°15'0 0.0
2015-Mar-20 20:26N 28°28' W 016°15'0 0.0
2015-Mar-20 19:26N 28°28' W 016°15'0 0.0
2015-Mar-20 18:29N 28°28' W 016°15'0 0.0
2015-Mar-20 17:29N 28°28' W 016°15'0 0.0
2015-Mar-20 16:26N 28°28' W 016°15'0 0.0
2015-Mar-20 15:32N 28°28' W 016°15'0 0.0
2015-Mar-20 14:32N 28°28' W 016°15'0 0.0
2015-Mar-20 13:32N 28°28' W 016°15'0 0.0
2015-Mar-20 12:32N 28°28' W 016°15'0 0.0
2015-Mar-20 11:32N 28°28' W 016°15'0 0.0
2015-Mar-20 10:32N 28°28' W 016°15'0 0.0
2015-Mar-20 09:32N 28°28' W 016°15'0 0.0
2015-Mar-20 08:20N 28°28' W 016°15'0 0.0
2015-Mar-20 07:20N 28°28' W 016°15'0 0.0
2015-Mar-20 06:26N 28°28' W 016°15'0 0.0
2015-Mar-20 05:26N 28°28' W 016°15'7 8.6
2015-Mar-20 04:33N 28°27' W 016°06'1414.3
2015-Mar-20 03:33N 28°31' W 015°51'1515.1
2015-Mar-20 02:33N 28°39' W 015°36'1716.5
2015-Mar-20 01:33N 28°41' W 015°17'1716.5
2015-Mar-20 00:33N 28°43' W 014°58'1514.6
2015-Mar-19 23:33N 28°44' W 014°42'1211.5
2015-Mar-19 22:33N 28°46' W 014°29'  

Dump ship's entire track history